createdAt,value
2023-02-27T00:00:14.908Z,6.63
2023-02-27T00:02:43.603Z,5.65
2023-02-27T00:05:10.881Z,5.20
2023-02-27T00:10:06.667Z,6.43
2023-02-27T00:12:37.786Z,6.72
2023-02-27T00:15:16.717Z,6.45
2023-02-27T00:17:44.194Z,5.57
2023-02-27T00:20:13.905Z,6.25
2023-02-27T00:22:41.403Z,7.32
2023-02-27T00:25:09.452Z,6.57
2023-02-27T00:27:36.993Z,7.75
2023-02-27T00:30:09.227Z,8.98
2023-02-27T00:32:36.685Z,6.20
2023-02-27T00:35:09.557Z,8.20
2023-02-27T00:37:37.370Z,5.97
2023-02-27T00:40:07.561Z,6.75
2023-02-27T00:42:34.921Z,6.20
2023-02-27T00:45:02.457Z,7.03
2023-02-27T00:47:31.204Z,7.75
2023-02-27T00:49:57.869Z,6.05
2023-02-27T00:52:24.573Z,5.32
2023-02-27T00:54:52.164Z,8.05
2023-02-27T00:57:18.930Z,5.75
2023-02-27T00:59:46.495Z,8.65
2023-02-27T01:02:13.698Z,6.50
2023-02-27T01:04:40.487Z,7.05
2023-02-27T01:07:07.443Z,6.30
2023-02-27T01:09:34.282Z,6.47
2023-02-27T01:12:00.999Z,9.20
2023-02-27T01:14:29.369Z,6.70
2023-02-27T01:16:57.841Z,9.60
2023-02-27T01:19:25.660Z,5.35
2023-02-27T01:21:52.371Z,7.07
2023-02-27T01:24:21.899Z,6.28
2023-02-27T01:26:48.926Z,7.05
2023-02-27T01:29:15.765Z,6.03
2023-02-27T01:31:42.572Z,6.75
2023-02-27T01:34:11.127Z,7.25
2023-02-27T01:36:38.020Z,6.22
2023-02-27T01:39:04.874Z,7.07
2023-02-27T01:41:33.493Z,8.48
2023-02-27T01:44:06.943Z,7.00
2023-02-27T01:46:37.648Z,5.68
2023-02-27T01:51:50.390Z,4.75
2023-02-27T01:54:22.405Z,5.68
2023-02-27T01:56:50.480Z,6.45
2023-02-27T01:59:18.584Z,5.55
2023-02-27T02:01:46.091Z,5.85
2023-02-27T02:04:24.949Z,6.43
2023-02-27T02:06:59.454Z,10.10
2023-02-27T02:09:27.849Z,9.30
2023-02-27T02:11:56.865Z,8.43
2023-02-27T02:14:24.022Z,11.05
2023-02-27T02:17:01.098Z,6.28
2023-02-27T02:19:46.363Z,5.97
2023-02-27T02:22:27.164Z,6.18
2023-02-27T02:25:25.836Z,6.60
2023-02-27T02:28:13.580Z,6.82
2023-02-27T02:31:14.699Z,6.00
2023-02-27T02:34:05.839Z,7.47
2023-02-27T02:37:05.601Z,7.80
2023-02-27T02:39:56.871Z,6.10
2023-02-27T02:42:49.165Z,6.82
2023-02-27T02:45:34.755Z,5.45
2023-02-27T02:48:18.971Z,8.55
2023-02-27T02:50:51.476Z,9.02
2023-02-27T02:53:39.328Z,8.43
2023-02-27T02:56:29.238Z,6.35
2023-02-27T02:59:23.022Z,8.95
2023-02-27T03:01:55.512Z,6.20
2023-02-27T03:04:29.090Z,10.93
2023-02-27T03:07:02.584Z,6.15
2023-02-27T03:09:50.788Z,6.32
2023-02-27T03:12:22.221Z,7.38
2023-02-27T03:15:39.676Z,6.75
2023-02-27T03:18:20.686Z,6.80
2023-02-27T03:20:55.860Z,7.03
2023-02-27T03:23:35.461Z,8.85
2023-02-27T03:26:04.554Z,5.45
2023-02-27T03:28:39.080Z,6.82
2023-02-27T03:31:34.286Z,8.10
2023-02-27T03:34:36.107Z,7.05
2023-02-27T03:37:25.438Z,7.95
2023-02-27T03:40:06.445Z,6.68
2023-02-27T03:42:47.691Z,6.85
2023-02-27T03:45:54.565Z,6.78
2023-02-27T03:48:21.688Z,7.68
2023-02-27T03:50:48.559Z,5.35
2023-02-27T03:53:33.539Z,7.13
2023-02-27T03:56:03.513Z,8.27
2023-02-27T03:58:30.537Z,7.38
2023-02-27T04:00:57.434Z,7.35
2023-02-27T04:03:24.264Z,6.43
2023-02-27T04:05:51.127Z,6.38
2023-02-27T04:08:49.583Z,8.85
2023-02-27T04:12:10.085Z,8.93
2023-02-27T04:14:46.555Z,6.82
2023-02-27T04:17:23.037Z,8.13
2023-02-27T04:20:10.933Z,8.15
2023-02-27T04:22:44.527Z,7.72
2023-02-27T04:25:23.633Z,7.43
2023-02-27T04:28:02.174Z,8.57
2023-02-27T04:30:43.503Z,7.57
2023-02-27T04:33:32.210Z,6.45
2023-02-27T04:36:27.923Z,8.20
2023-02-27T04:39:15.627Z,8.63
2023-02-27T04:41:48.120Z,7.00
2023-02-27T04:44:16.426Z,8.45
2023-02-27T04:46:44.333Z,7.30
2023-02-27T04:49:20.043Z,9.32
2023-02-27T04:51:55.579Z,8.02
2023-02-27T04:54:43.605Z,7.03
2023-02-27T04:57:16.145Z,10.10
2023-02-27T04:59:49.023Z,10.50
2023-02-27T05:02:34.853Z,10.55
2023-02-27T05:05:06.657Z,11.75
2023-02-27T05:07:52.635Z,13.32
2023-02-27T05:10:43.665Z,10.45
2023-02-27T05:13:16.620Z,10.15
2023-02-27T05:15:52.782Z,10.90
2023-02-27T05:18:21.794Z,9.65
2023-02-27T05:21:12.537Z,11.10
2023-02-27T05:24:00.946Z,10.35
2023-02-27T05:26:39.098Z,9.43
2023-02-27T05:29:23.292Z,7.82
2023-02-27T05:32:23.761Z,10.77
2023-02-27T05:35:08.973Z,8.68
2023-02-27T05:37:53.677Z,9.65
2023-02-27T05:40:26.358Z,10.93
2023-02-27T05:43:01.058Z,9.95
2023-02-27T05:45:31.383Z,9.77
2023-02-27T05:48:07.471Z,9.48
2023-02-27T05:50:37.629Z,10.88
2023-02-27T05:53:09.295Z,8.98
2023-02-27T05:55:43.926Z,9.27
2023-02-27T05:58:21.146Z,8.15
2023-02-27T06:00:58.725Z,10.90
2023-02-27T06:03:27.134Z,12.70
2023-02-27T06:05:55.547Z,10.88
2023-02-27T06:08:23.468Z,13.18
2023-02-27T06:10:50.201Z,9.10
2023-02-27T06:13:17.264Z,12.50
2023-02-27T06:15:46.899Z,10.70
2023-02-27T06:18:15.117Z,8.13
2023-02-27T06:20:43.543Z,8.77
2023-02-27T06:23:11.604Z,9.10
2023-02-27T06:25:38.940Z,10.35
2023-02-27T06:30:32.519Z,8.95
2023-02-27T06:33:00.910Z,9.98
2023-02-27T06:35:29.295Z,10.18
2023-02-27T06:37:58.279Z,7.72
2023-02-27T06:40:25.368Z,8.27
2023-02-27T06:42:52.084Z,10.20
2023-02-27T06:45:19.085Z,6.78
2023-02-27T06:47:45.797Z,9.13
2023-02-27T06:50:13.828Z,12.27
2023-02-27T06:52:41.222Z,13.45
2023-02-27T06:57:35.155Z,17.00
2023-02-27T07:00:02.364Z,10.82
2023-02-27T07:02:29.101Z,10.75
2023-02-27T07:04:55.866Z,11.20
2023-02-27T07:07:36.368Z,10.48
2023-02-27T07:10:06.554Z,12.60
2023-02-27T07:12:33.331Z,12.82
2023-02-27T07:15:00.096Z,9.50
2023-02-27T07:17:26.776Z,9.57
2023-02-27T07:19:53.421Z,12.23
2023-02-27T07:22:20.074Z,6.13
2023-02-27T07:24:46.727Z,7.65
2023-02-27T07:27:13.386Z,8.48
2023-02-27T07:29:40.130Z,9.25
2023-02-27T07:32:06.901Z,10.38
2023-02-27T07:34:33.583Z,11.73
2023-02-27T07:37:00.374Z,7.28
2023-02-27T07:39:27.040Z,10.05
2023-02-27T07:41:53.739Z,7.93
2023-02-27T07:44:22.108Z,10.93
2023-02-27T07:46:48.829Z,5.40
2023-02-27T07:49:15.768Z,10.30
2023-02-27T07:51:42.598Z,11.50
2023-02-27T07:54:09.369Z,10.73
2023-02-27T07:56:36.024Z,11.00
2023-02-27T07:59:02.795Z,8.85
2023-02-27T08:01:29.521Z,8.13
2023-02-27T08:03:56.608Z,10.82
2023-02-27T08:06:23.856Z,9.50
2023-02-27T08:11:18.467Z,10.90
2023-02-27T08:16:28.286Z,7.88
2023-02-27T08:18:55.239Z,12.63
2023-02-27T08:21:22.011Z,9.40
2023-02-27T08:23:48.689Z,10.45
2023-02-27T08:26:15.543Z,12.68
2023-02-27T08:28:42.580Z,7.38
2023-02-27T08:31:09.295Z,8.25
2023-02-27T08:33:36.688Z,9.10
2023-02-27T08:36:03.456Z,8.65
2023-02-27T08:38:30.231Z,13.50
2023-02-27T08:40:57.088Z,9.43
2023-02-27T08:43:23.892Z,9.50
2023-02-27T08:45:51.382Z,7.80
2023-02-27T08:48:18.542Z,12.30
2023-02-27T08:50:46.873Z,14.68
2023-02-27T08:53:13.954Z,11.05
2023-02-27T08:55:40.929Z,6.78
2023-02-27T08:58:07.902Z,9.20
2023-02-27T09:00:34.650Z,8.73
2023-02-27T09:03:01.518Z,7.90
2023-02-27T09:05:29.063Z,7.68
2023-02-27T09:07:55.729Z,9.18
2023-02-27T09:10:22.652Z,9.80
2023-02-27T09:12:49.442Z,8.02
2023-02-27T09:15:16.592Z,8.48
2023-02-27T09:17:43.498Z,9.82
2023-02-27T09:20:10.865Z,10.32
2023-02-27T09:22:38.343Z,11.40
2023-02-27T09:25:05.803Z,8.07
2023-02-27T09:27:32.486Z,12.68
2023-02-27T09:29:59.298Z,5.78
2023-02-27T09:32:26.910Z,11.07
2023-02-27T09:34:53.977Z,7.95
2023-02-27T09:37:20.666Z,7.45
2023-02-27T09:39:47.625Z,5.63
2023-02-27T09:42:19.748Z,9.40
2023-02-27T09:44:56.040Z,11.10
2023-02-27T09:47:37.236Z,18.38
2023-02-27T09:50:06.190Z,7.18
2023-02-27T09:52:35.538Z,9.52
2023-02-27T09:55:05.270Z,8.05
2023-02-27T09:57:46.279Z,8.27
2023-02-27T10:00:40.104Z,10.43
2023-02-27T10:03:22.055Z,6.82
2023-02-27T10:06:07.170Z,8.00
2023-02-27T10:09:08.168Z,8.40
2023-02-27T10:11:57.245Z,8.73
2023-02-27T10:14:29.852Z,12.88
2023-02-27T10:16:58.115Z,7.80
2023-02-27T10:19:30.812Z,11.40
2023-02-27T10:21:59.805Z,7.82
2023-02-27T10:24:38.202Z,8.85
2023-02-27T10:27:08.089Z,7.05
2023-02-27T10:29:39.636Z,10.05
2023-02-27T10:32:27.034Z,8.68
2023-02-27T10:35:17.093Z,9.85
2023-02-27T10:37:49.895Z,9.23
2023-02-27T10:40:17.887Z,8.32
2023-02-27T10:42:45.015Z,6.65
2023-02-27T10:45:15.772Z,11.13
2023-02-27T10:47:43.519Z,7.97
2023-02-27T10:50:26.251Z,10.02
2023-02-27T10:52:55.474Z,7.40
2023-02-27T10:55:41.018Z,9.70
2023-02-27T10:58:07.943Z,10.07
2023-02-27T11:00:47.811Z,7.93
2023-02-27T11:03:32.387Z,8.98
2023-02-27T11:06:12.157Z,9.52
2023-02-27T11:08:38.867Z,9.05
2023-02-27T11:11:11.110Z,7.60
2023-02-27T11:13:44.862Z,8.45
2023-02-27T11:16:11.543Z,7.20
2023-02-27T11:18:40.562Z,8.95
2023-02-27T11:21:21.153Z,9.38
2023-02-27T11:23:54.632Z,7.45
2023-02-27T11:26:36.313Z,8.68
2023-02-27T11:29:18.296Z,9.20
2023-02-27T11:32:04.545Z,7.03
2023-02-27T11:34:38.686Z,5.88
2023-02-27T11:42:52.797Z,6.45
2023-02-27T11:46:04.792Z,6.10
2023-02-27T11:48:21.938Z,7.80
2023-02-27T11:50:58.275Z,8.50
2023-02-27T11:53:46.778Z,8.27
2023-02-27T11:56:19.784Z,11.45
2023-02-27T11:58:58.899Z,7.82
2023-02-27T12:01:31.938Z,8.88
2023-02-27T12:04:06.679Z,6.45
2023-02-27T12:06:47.316Z,5.28
2023-02-27T12:09:34.116Z,6.82
2023-02-27T12:12:03.457Z,6.90
2023-02-27T12:14:40.982Z,5.95
2023-02-27T12:17:59.255Z,9.82
2023-02-27T12:20:36.547Z,14.02
2023-02-27T12:23:13.855Z,6.90
2023-02-27T12:25:46.618Z,7.78
2023-02-27T12:28:42.226Z,9.93
2023-02-27T12:31:36.423Z,10.07
2023-02-27T12:34:29.327Z,9.15
2023-02-27T12:37:04.989Z,8.25
2023-02-27T12:39:33.355Z,6.63
2023-02-27T12:42:37.800Z,6.88
2023-02-27T12:45:10.425Z,8.85
2023-02-27T12:47:39.828Z,6.82
2023-02-27T12:50:29.481Z,6.22
2023-02-27T12:53:25.348Z,9.52
2023-02-27T12:55:59.954Z,9.07
2023-02-27T12:59:06.742Z,7.47
2023-02-27T13:01:48.380Z,8.27
2023-02-27T13:04:23.588Z,10.85
2023-02-27T13:07:00.900Z,10.15
2023-02-27T13:09:44.472Z,9.82
2023-02-27T13:12:57.779Z,8.30
2023-02-27T13:15:33.842Z,7.05
2023-02-27T13:18:18.666Z,9.73
2023-02-27T13:20:53.639Z,10.25
2023-02-27T13:23:30.904Z,7.60
2023-02-27T13:25:59.874Z,8.38
2023-02-27T13:28:29.215Z,6.88
2023-02-27T13:31:12.240Z,9.40
2023-02-27T13:34:05.473Z,6.65
2023-02-27T13:36:48.746Z,7.40
2023-02-27T13:39:40.646Z,9.52
2023-02-27T13:42:25.724Z,8.57
2023-02-27T13:45:33.960Z,8.00
2023-02-27T13:48:00.651Z,8.85
2023-02-27T13:50:27.282Z,9.10
2023-02-27T13:52:54.139Z,8.45
2023-02-27T13:55:28.401Z,11.25
2023-02-27T13:57:58.514Z,8.00
2023-02-27T14:00:29.089Z,7.97
2023-02-27T14:03:00.844Z,9.13
2023-02-27T14:05:39.719Z,6.80
2023-02-27T14:08:17.445Z,9.25
2023-02-27T14:11:12.772Z,8.95
2023-02-27T14:13:45.666Z,6.80
2023-02-27T14:16:37.515Z,8.00
2023-02-27T14:19:16.284Z,9.80
2023-02-27T14:22:01.421Z,10.00
2023-02-27T14:25:02.117Z,8.02
2023-02-27T14:27:37.911Z,11.27
2023-02-27T14:30:09.932Z,11.20
2023-02-27T14:32:37.706Z,8.60
2023-02-27T14:35:06.111Z,9.63
2023-02-27T14:37:33.444Z,8.82
2023-02-27T14:42:58.252Z,7.18
2023-02-27T14:45:25.229Z,10.00
2023-02-27T14:47:53.129Z,9.18
2023-02-27T14:50:34.169Z,7.72
2023-02-27T14:53:01.688Z,9.73
2023-02-27T14:55:31.438Z,10.18
2023-02-27T14:58:17.725Z,8.57
2023-02-27T15:01:07.478Z,10.13
2023-02-27T15:03:47.131Z,8.13
2023-02-27T15:06:24.718Z,11.68
2023-02-27T15:08:55.440Z,9.95
2023-02-27T15:11:23.696Z,7.20
2023-02-27T15:13:59.783Z,11.32
2023-02-27T15:16:37.729Z,11.20
2023-02-27T15:21:45.305Z,11.73
2023-02-27T15:24:31.419Z,10.80
2023-02-27T15:27:10.508Z,8.63
2023-02-27T15:29:39.951Z,9.57
2023-02-27T15:32:14.277Z,8.30
2023-02-27T15:34:44.358Z,11.30
2023-02-27T15:37:23.719Z,10.77
2023-02-27T15:39:52.099Z,9.88
2023-02-27T15:42:34.981Z,10.20
2023-02-27T15:45:04.086Z,9.48
2023-02-27T15:47:32.528Z,12.05
2023-02-27T15:50:11.302Z,14.60
2023-02-27T15:53:12.031Z,12.27
2023-02-27T15:55:44.929Z,12.55
2023-02-27T15:58:26.403Z,14.23
2023-02-27T16:01:00.986Z,15.52
2023-02-27T16:03:37.901Z,10.52
2023-02-27T16:06:20.743Z,11.50
2023-02-27T16:09:00.331Z,10.80
2023-02-27T16:11:32.964Z,10.65
2023-02-27T16:14:00.340Z,11.45
2023-02-27T16:18:58.281Z,11.48
2023-02-27T16:21:27.064Z,10.77
2023-02-27T16:23:54.634Z,11.25
2023-02-27T16:26:36.673Z,16.77
2023-02-27T16:29:22.835Z,11.75
2023-02-27T16:31:53.668Z,14.45
2023-02-27T16:34:45.210Z,11.25
2023-02-27T16:37:38.745Z,17.35
2023-02-27T16:40:15.423Z,13.90
2023-02-27T16:42:43.258Z,12.05
2023-02-27T16:45:27.320Z,12.32
2023-02-27T16:47:56.653Z,9.98
2023-02-27T16:50:29.151Z,18.45
2023-02-27T16:52:57.380Z,15.60
2023-02-27T16:55:25.107Z,14.20
2023-02-27T16:57:52.277Z,17.25
2023-02-27T17:00:20.380Z,12.45
2023-02-27T17:02:48.207Z,13.57
2023-02-27T17:05:15.568Z,12.45
2023-02-27T17:10:14.975Z,14.77
2023-02-27T17:12:43.776Z,14.77
2023-02-27T17:15:10.719Z,12.40
2023-02-27T17:17:37.405Z,14.05
2023-02-27T17:20:07.182Z,14.60
2023-02-27T17:22:39.438Z,14.27
2023-02-27T17:25:07.381Z,16.08
2023-02-27T17:27:34.286Z,15.38
2023-02-27T17:30:01.059Z,14.90
2023-02-27T17:32:27.771Z,12.98
2023-02-27T17:34:55.683Z,15.70
2023-02-27T17:37:23.011Z,20.60
2023-02-27T17:42:18.469Z,15.48
2023-02-27T17:44:46.483Z,15.63
2023-02-27T17:47:14.125Z,13.73
2023-02-27T17:49:40.992Z,17.17
2023-02-27T17:52:07.892Z,12.50
2023-02-27T17:54:35.616Z,14.43
2023-02-27T17:57:04.689Z,14.07
2023-02-27T17:59:31.632Z,17.15
2023-02-27T18:01:58.867Z,17.55
2023-02-27T18:04:25.953Z,14.25
2023-02-27T18:06:53.064Z,16.13
2023-02-27T18:09:19.755Z,15.27
2023-02-27T18:11:46.468Z,18.02
2023-02-27T18:14:13.816Z,14.13
2023-02-27T18:16:41.327Z,12.63
2023-02-27T18:19:08.350Z,18.83
2023-02-27T18:21:35.711Z,15.25
2023-02-27T18:24:02.772Z,16.55
2023-02-27T18:26:31.715Z,19.38
2023-02-27T18:29:01.218Z,13.45
2023-02-27T18:31:31.361Z,15.15
2023-02-27T18:33:59.048Z,13.80
2023-02-27T18:36:26.056Z,16.25
2023-02-27T18:41:19.701Z,14.20
2023-02-27T18:43:46.409Z,14.55
2023-02-27T18:46:13.657Z,14.30
2023-02-27T18:51:12.229Z,16.88
2023-02-27T18:53:40.999Z,17.30
2023-02-27T18:56:10.142Z,17.45
2023-02-27T18:58:37.476Z,17.13
2023-02-27T19:03:32.101Z,12.25
2023-02-27T19:08:29.011Z,12.65
2023-02-27T19:10:57.191Z,13.35
2023-02-27T19:13:25.153Z,16.73
2023-02-27T19:15:52.229Z,11.88
2023-02-27T19:18:19.294Z,11.15
2023-02-27T19:20:46.041Z,12.80
2023-02-27T19:23:12.736Z,18.70
2023-02-27T19:25:39.619Z,12.23
2023-02-27T19:28:07.580Z,13.77
2023-02-27T19:30:34.280Z,16.52
2023-02-27T19:33:01.028Z,10.07
2023-02-27T19:35:27.763Z,13.70
2023-02-27T19:37:58.062Z,17.80
2023-02-27T19:40:26.278Z,15.55
2023-02-27T19:42:53.009Z,11.57
2023-02-27T19:45:19.690Z,12.02
2023-02-27T19:47:46.736Z,9.85
2023-02-27T19:50:13.826Z,12.23
2023-02-27T19:52:40.577Z,13.88
2023-02-27T19:55:08.018Z,14.25
2023-02-27T19:57:36.816Z,15.02
2023-02-27T20:00:08.501Z,13.38
2023-02-27T20:02:42.300Z,9.70
2023-02-27T20:05:11.990Z,11.20
2023-02-27T20:07:39.115Z,14.73
2023-02-27T20:10:06.106Z,9.48
2023-02-27T20:12:33.010Z,10.30
2023-02-27T20:15:06.890Z,13.02
2023-02-27T20:17:33.574Z,11.40
2023-02-27T20:20:00.328Z,11.68
2023-02-27T20:22:27.028Z,9.80
2023-02-27T20:24:56.839Z,9.48
2023-02-27T20:27:23.607Z,11.85
2023-02-27T20:29:57.299Z,6.90
2023-02-27T20:32:25.213Z,9.35
2023-02-27T20:34:55.428Z,7.75
2023-02-27T20:37:22.753Z,12.85
2023-02-27T20:39:49.940Z,9.30
2023-02-27T20:44:43.527Z,11.63
2023-02-27T20:47:10.425Z,8.63
2023-02-27T20:49:38.299Z,7.38
2023-02-27T20:52:04.959Z,10.43
2023-02-27T20:54:31.636Z,11.82
2023-02-27T20:56:58.442Z,8.90
2023-02-27T20:59:25.494Z,7.88
2023-02-27T21:01:53.166Z,11.90
2023-02-27T21:04:42.486Z,9.48
2023-02-27T21:07:15.035Z,9.40
2023-02-27T21:09:41.947Z,8.82
2023-02-27T21:12:09.235Z,13.43
2023-02-27T21:17:03.411Z,9.98
2023-02-27T21:19:30.178Z,10.55
2023-02-27T21:21:56.842Z,9.30
2023-02-27T21:24:23.558Z,13.85
2023-02-27T21:26:50.398Z,9.90
2023-02-27T21:29:20.168Z,9.85
2023-02-27T21:31:49.339Z,11.98
2023-02-27T21:34:22.276Z,6.22
2023-02-27T21:36:50.344Z,8.77
2023-02-27T21:39:22.528Z,9.18
2023-02-27T21:41:49.754Z,8.48
2023-02-27T21:44:19.965Z,11.73
2023-02-27T21:46:47.414Z,10.50
2023-02-27T21:49:20.108Z,10.88
2023-02-27T21:51:47.509Z,9.75
2023-02-27T21:54:15.837Z,7.93
2023-02-27T21:56:43.958Z,13.23
2023-02-27T21:59:11.275Z,10.48
2023-02-27T22:04:05.721Z,14.35
2023-02-27T22:06:33.586Z,7.82
2023-02-27T22:09:04.285Z,10.15
2023-02-27T22:11:32.050Z,11.77
2023-02-27T22:13:58.750Z,9.30
2023-02-27T22:16:25.671Z,8.57
2023-02-27T22:18:52.539Z,6.55
2023-02-27T22:21:22.654Z,11.80
2023-02-27T22:23:49.560Z,8.60
2023-02-27T22:26:19.388Z,10.23
2023-02-27T22:28:46.149Z,8.82
2023-02-27T22:31:20.599Z,9.45
2023-02-27T22:33:51.014Z,10.20
2023-02-27T22:36:31.660Z,7.82
2023-02-27T22:38:59.226Z,10.48
2023-02-27T22:41:37.295Z,9.35
2023-02-27T22:44:04.612Z,10.65
2023-02-27T22:49:02.496Z,6.80
2023-02-27T22:51:30.212Z,8.05
2023-02-27T22:53:59.523Z,10.18
2023-02-27T22:56:26.772Z,8.43
2023-02-27T22:58:53.873Z,11.25
2023-02-27T23:01:26.451Z,8.50
2023-02-27T23:03:56.185Z,10.63
2023-02-27T23:06:32.901Z,9.75
2023-02-27T23:09:00.471Z,9.95
2023-02-27T23:11:27.526Z,7.88
2023-02-27T23:16:21.235Z,8.05
2023-02-27T23:18:51.180Z,8.07
2023-02-27T23:21:20.574Z,10.07
2023-02-27T23:23:48.028Z,10.20
2023-02-27T23:26:15.120Z,8.45
2023-02-27T23:28:42.693Z,11.07
2023-02-27T23:31:09.728Z,10.60
2023-02-27T23:33:36.775Z,7.93
2023-02-27T23:36:04.364Z,9.52
2023-02-27T23:38:31.095Z,13.73
2023-02-27T23:40:57.983Z,9.80
2023-02-27T23:43:24.748Z,9.60
2023-02-27T23:45:51.696Z,12.88
2023-02-27T23:48:21.749Z,10.57
2023-02-27T23:50:48.919Z,12.35
2023-02-27T23:53:15.814Z,14.77
2023-02-27T23:55:43.761Z,13.63
2023-02-27T23:58:11.138Z,11.02
